sensor_id;sensor_type;location;lat;lon;timestamp;pressure;altitude;pressure_sealevel;temperature;humidity
69214;BME280;56325;47.030;18.518;2022-09-17T00:00:26;99694.91;;;14.85;85.47
69214;BME280;56325;47.030;18.518;2022-09-17T00:03:02;99684.09;;;14.76;87.01
69214;BME280;56325;47.030;18.518;2022-09-17T00:05:36;99690.41;;;14.99;85.25
69214;BME280;56325;47.030;18.518;2022-09-17T00:08:12;99686.38;;;15.00;85.02
69214;BME280;56325;47.030;18.518;2022-09-17T00:10:47;99680.84;;;14.94;85.54
69214;BME280;56325;47.030;18.518;2022-09-17T00:13:21;99659.69;;;14.86;85.35
69214;BME280;56325;47.030;18.518;2022-09-17T00:15:55;99665.72;;;14.84;86.09
69214;BME280;56325;47.030;18.518;2022-09-17T00:18:31;99655.66;;;14.92;86.13
69214;BME280;56325;47.030;18.518;2022-09-17T00:21:14;99654.41;;;15.04;85.58
69214;BME280;56325;47.030;18.518;2022-09-17T00:23:52;99650.13;;;15.15;84.77
69214;BME280;56325;47.030;18.518;2022-09-17T00:26:27;99650.87;;;15.15;84.50
69214;BME280;56325;47.030;18.518;2022-09-17T00:29:03;99655.94;;;15.17;84.08
69214;BME280;56325;47.030;18.518;2022-09-17T00:31:38;99657.94;;;15.16;84.66
69214;BME280;56325;47.030;18.518;2022-09-17T00:34:14;99649.13;;;15.18;83.74
69214;BME280;56325;47.030;18.518;2022-09-17T00:36:49;99649.13;;;15.18;84.37
69214;BME280;56325;47.030;18.518;2022-09-17T00:39:23;99650.13;;;15.26;83.68
69214;BME280;56325;47.030;18.518;2022-09-17T00:41:57;99642.59;;;15.21;83.94
69214;BME280;56325;47.030;18.518;2022-09-17T00:44:41;99650.63;;;15.30;83.68
69214;BME280;56325;47.030;18.518;2022-09-17T00:47:20;99647.38;;;15.15;84.25
69214;BME280;56325;47.030;18.518;2022-09-17T00:49:59;99636.78;;;15.24;84.29
69214;BME280;56325;47.030;18.518;2022-09-17T00:52:37;99633.75;;;15.22;83.69
69214;BME280;56325;47.030;18.518;2022-09-17T00:55:16;99636.53;;;15.17;84.14
69214;BME280;56325;47.030;18.518;2022-09-17T00:57:54;99639.81;;;15.26;83.46
69214;BME280;56325;47.030;18.518;2022-09-17T01:00:30;99649.38;;;15.25;83.29
69214;BME280;56325;47.030;18.518;2022-09-17T01:03:05;99652.66;;;15.24;83.29
69214;BME280;56325;47.030;18.518;2022-09-17T01:05:46;99657.94;;;15.22;83.09
69214;BME280;56325;47.030;18.518;2022-09-17T01:08:26;99665.75;;;15.12;83.42
69214;BME280;56325;47.030;18.518;2022-09-17T01:11:18;99665.00;;;15.06;84.34
69214;BME280;56325;47.030;18.518;2022-09-17T01:14:02;99657.94;;;15.11;83.54
69214;BME280;56325;47.030;18.518;2022-09-17T01:16:48;99659.69;;;15.25;83.25
69214;BME280;56325;47.030;18.518;2022-09-17T01:19:56;99660.47;;;15.08;83.33
69214;BME280;56325;47.030;18.518;2022-09-17T01:22:44;99650.13;;;15.15;82.22
69214;BME280;56325;47.030;18.518;2022-09-17T01:25:31;99659.19;;;15.15;82.07
69214;BME280;56325;47.030;18.518;2022-09-17T01:28:28;99668.25;;;14.71;83.26
69214;BME280;56325;47.030;18.518;2022-09-17T01:31:29;99665.97;;;14.64;83.37
69214;BME280;56325;47.030;18.518;2022-09-17T01:34:13;99674.00;;;14.51;84.02
69214;BME280;56325;47.030;18.518;2022-09-17T01:37:03;99678.72;;;14.39;83.92
69214;BME280;56325;47.030;18.518;2022-09-17T01:39:45;99675.66;;;14.31;83.54
69214;BME280;56325;47.030;18.518;2022-09-17T01:42:25;99672.59;;;14.18;83.78
69214;BME280;56325;47.030;18.518;2022-09-17T01:45:07;99677.41;;;14.23;82.75
69214;BME280;56325;47.030;18.518;2022-09-17T01:47:46;99677.91;;;14.27;82.95
69214;BME280;56325;47.030;18.518;2022-09-17T01:50:27;99679.72;;;14.36;82.97
69214;BME280;56325;47.030;18.518;2022-09-17T01:53:03;99671.59;;;14.21;82.41
69214;BME280;56325;47.030;18.518;2022-09-17T01:55:39;99666.56;;;14.14;83.16
69214;BME280;56325;47.030;18.518;2022-09-17T01:58:19;99674.06;;;14.08;84.27
69214;BME280;56325;47.030;18.518;2022-09-17T02:00:59;99665.28;;;14.09;83.38
69214;BME280;56325;47.030;18.518;2022-09-17T02:03:41;99665.50;;;14.06;83.14
69214;BME280;56325;47.030;18.518;2022-09-17T02:06:21;99655.72;;;14.05;83.84
69214;BME280;56325;47.030;18.518;2022-09-17T02:09:01;99663.22;;;13.99;83.93
69214;BME280;56325;47.030;18.518;2022-09-17T02:11:40;99654.38;;;13.84;84.11
69214;BME280;56325;47.030;18.518;2022-09-17T02:14:20;99655.69;;;13.99;83.48
69214;BME280;56325;47.030;18.518;2022-09-17T02:17:02;99662.69;;;13.89;84.61
69214;BME280;56325;47.030;18.518;2022-09-17T02:19:40;99662.69;;;13.89;83.47
69214;BME280;56325;47.030;18.518;2022-09-17T02:22:21;99656.88;;;13.82;84.61
69214;BME280;56325;47.030;18.518;2022-09-17T02:25:02;99653.69;;;14.00;83.73
69214;BME280;56325;47.030;18.518;2022-09-17T02:27:45;99640.31;;;13.93;84.33
69214;BME280;56325;47.030;18.518;2022-09-17T02:30:20;99630.25;;;13.90;83.71
69214;BME280;56325;47.030;18.518;2022-09-17T02:32:55;99635.09;;;14.00;83.63
69214;BME280;56325;47.030;18.518;2022-09-17T02:35:31;99631.53;;;13.94;83.15
69214;BME280;56325;47.030;18.518;2022-09-17T02:38:06;99623.31;;;14.11;83.16
69214;BME280;56325;47.030;18.518;2022-09-17T02:40:45;99610.28;;;14.23;82.33
69214;BME280;56325;47.030;18.518;2022-09-17T02:43:27;99611.78;;;14.18;83.07
69214;BME280;56325;47.030;18.518;2022-09-17T02:46:17;99606.53;;;14.31;81.41
69214;BME280;56325;47.030;18.518;2022-09-17T02:49:07;99590.41;;;14.13;82.87
69214;BME280;56325;47.030;18.518;2022-09-17T02:51:52;99577.59;;;14.16;81.79
69214;BME280;56325;47.030;18.518;2022-09-17T02:54:37;99562.97;;;14.04;83.63
69214;BME280;56325;47.030;18.518;2022-09-17T02:57:19;99558.47;;;14.12;83.98
69214;BME280;56325;47.030;18.518;2022-09-17T03:00:00;99553.72;;;14.18;82.28
69214;BME280;56325;47.030;18.518;2022-09-17T03:02:39;99553.19;;;14.08;83.57
69214;BME280;56325;47.030;18.518;2022-09-17T03:05:17;99550.44;;;14.14;83.80
69214;BME280;56325;47.030;18.518;2022-09-17T03:07:53;99543.91;;;14.17;82.91
69214;BME280;56325;47.030;18.518;2022-09-17T03:10:28;99537.38;;;14.20;83.22
69214;BME280;56325;47.030;18.518;2022-09-17T03:13:05;99511.88;;;15.33;92.26
69214;BME280;56325;47.030;18.518;2022-09-17T03:15:39;99518.13;;;15.45;87.75
69214;BME280;56325;47.030;18.518;2022-09-17T03:18:13;99511.50;;;16.12;84.19
69214;BME280;56325;47.030;18.518;2022-09-17T03:20:48;99510.56;;;15.57;79.08
69214;BME280;56325;47.030;18.518;2022-09-17T03:23:23;99514.16;;;15.24;79.83
69214;BME280;56325;47.030;18.518;2022-09-17T03:25:59;99515.72;;;15.02;80.56
69214;BME280;56325;47.030;18.518;2022-09-17T03:28:34;99518.50;;;14.97;78.95
69214;BME280;56325;47.030;18.518;2022-09-17T03:31:08;99520.31;;;14.72;78.89
69214;BME280;56325;47.030;18.518;2022-09-17T03:33:42;99512.78;;;14.67;79.38
69214;BME280;56325;47.030;18.518;2022-09-17T03:36:17;99504.50;;;14.50;79.83
69214;BME280;56325;47.030;18.518;2022-09-17T03:38:54;99508.22;;;14.19;81.46
69214;BME280;56325;47.030;18.518;2022-09-17T03:41:29;99504.44;;;14.17;82.36
69214;BME280;56325;47.030;18.518;2022-09-17T03:44:02;99508.19;;;14.14;81.87
69214;BME280;56325;47.030;18.518;2022-09-17T03:46:37;99513.00;;;14.19;80.69
69214;BME280;56325;47.030;18.518;2022-09-17T03:49:11;99505.19;;;14.17;80.57
69214;BME280;56325;47.030;18.518;2022-09-17T03:51:45;99513.50;;;14.17;80.34
69214;BME280;56325;47.030;18.518;2022-09-17T03:54:21;99525.31;;;14.23;79.81
69214;BME280;56325;47.030;18.518;2022-09-17T03:56:55;99522.00;;;13.97;81.18
69214;BME280;56325;47.030;18.518;2022-09-17T03:59:30;99519.72;;;13.90;80.51
69214;BME280;56325;47.030;18.518;2022-09-17T04:02:05;99522.69;;;13.69;81.65
69214;BME280;56325;47.030;18.518;2022-09-17T04:04:40;99517.19;;;13.81;79.85
69214;BME280;56325;47.030;18.518;2022-09-17T04:07:14;99510.69;;;13.84;79.60
69214;BME280;56325;47.030;18.518;2022-09-17T04:09:49;99500.84;;;13.66;80.61
69214;BME280;56325;47.030;18.518;2022-09-17T04:12:24;99519.81;;;14.62;88.61
69214;BME280;56325;47.030;18.518;2022-09-17T04:14:58;99526.34;;;14.76;84.49
69214;BME280;56325;47.030;18.518;2022-09-17T04:17:32;99522.59;;;14.57;78.23
69214;BME280;56325;47.030;18.518;2022-09-17T04:20:07;99516.25;;;14.17;80.46
69214;BME280;56325;47.030;18.518;2022-09-17T04:22:42;99507.66;;;13.98;80.07
69214;BME280;56325;47.030;18.518;2022-09-17T04:25:17;99515.94;;;13.82;79.68
69214;BME280;56325;47.030;18.518;2022-09-17T04:27:51;99515.69;;;13.74;78.68
69214;BME280;56325;47.030;18.518;2022-09-17T04:30:26;99529.69;;;13.59;80.65
69214;BME280;56325;47.030;18.518;2022-09-17T04:33:00;99523.84;;;13.40;81.96
69214;BME280;56325;47.030;18.518;2022-09-17T04:35:34;99514.28;;;13.36;81.48
69214;BME280;56325;47.030;18.518;2022-09-17T04:38:09;99513.03;;;13.37;83.37
69214;BME280;56325;47.030;18.518;2022-09-17T04:40:47;99507.59;;;13.59;81.95
69214;BME280;56325;47.030;18.518;2022-09-17T04:43:21;99507.78;;;13.44;82.11
69214;BME280;56325;47.030;18.518;2022-09-17T04:45:56;99509.84;;;13.55;82.92
69214;BME280;56325;47.030;18.518;2022-09-17T04:48:30;99520.47;;;13.79;80.36
69214;BME280;56325;47.030;18.518;2022-09-17T04:51:04;99523.47;;;13.75;80.97
69214;BME280;56325;47.030;18.518;2022-09-17T04:53:38;99533.28;;;13.76;80.34
69214;BME280;56325;47.030;18.518;2022-09-17T04:56:14;99539.28;;;13.69;82.07
69214;BME280;56325;47.030;18.518;2022-09-17T04:58:48;99552.63;;;13.82;82.55
69214;BME280;56325;47.030;18.518;2022-09-17T05:01:23;99558.66;;;13.81;82.50
69214;BME280;56325;47.030;18.518;2022-09-17T05:03:57;99552.63;;;13.88;82.09
69214;BME280;56325;47.030;18.518;2022-09-17T05:06:31;99555.38;;;13.76;82.12
69214;BME280;56325;47.030;18.518;2022-09-17T05:09:05;99553.16;;;13.86;82.29
69214;BME280;56325;47.030;18.518;2022-09-17T05:11:41;99553.66;;;14.01;81.45
69214;BME280;56325;47.030;18.518;2022-09-17T05:14:15;99558.41;;;13.95;79.87
69214;BME280;56325;47.030;18.518;2022-09-17T05:16:50;99557.38;;;13.76;79.92
69214;BME280;56325;47.030;18.518;2022-09-17T05:19:24;99552.50;;;13.54;81.31
69214;BME280;56325;47.030;18.518;2022-09-17T05:21:58;99555.78;;;13.53;81.12
69214;BME280;56325;47.030;18.518;2022-09-17T05:24:32;99540.72;;;13.59;81.72
69214;BME280;56325;47.030;18.518;2022-09-17T05:27:12;99561.91;;;13.73;80.05
69214;BME280;56325;47.030;18.518;2022-09-17T05:29:46;99563.81;;;13.51;80.94
69214;BME280;56325;47.030;18.518;2022-09-17T05:32:21;99566.31;;;13.49;80.93
69214;BME280;56325;47.030;18.518;2022-09-17T05:34:55;99569.38;;;13.62;80.49
69214;BME280;56325;47.030;18.518;2022-09-17T05:37:29;99578.88;;;13.55;79.84
69214;BME280;56325;47.030;18.518;2022-09-17T05:40:05;99584.41;;;13.55;80.07
69214;BME280;56325;47.030;18.518;2022-09-17T05:42:41;99592.59;;;13.38;80.97
69214;BME280;56325;47.030;18.518;2022-09-17T05:45:15;99588.06;;;13.35;82.58
69214;BME280;56325;47.030;18.518;2022-09-17T05:47:53;99587.91;;;13.50;81.19
69214;BME280;56325;47.030;18.518;2022-09-17T05:50:28;99583.16;;;13.56;83.22
69214;BME280;56325;47.030;18.518;2022-09-17T05:53:03;99588.44;;;13.54;82.45
69214;BME280;56325;47.030;18.518;2022-09-17T05:55:38;99590.47;;;13.59;82.81
69214;BME280;56325;47.030;18.518;2022-09-17T05:58:16;99573.19;;;13.70;82.69
69214;BME280;56325;47.030;18.518;2022-09-17T06:00:51;99558.16;;;13.82;83.15
69214;BME280;56325;47.030;18.518;2022-09-17T06:03:25;99560.19;;;13.98;81.45
69214;BME280;56325;47.030;18.518;2022-09-17T06:05:59;99554.13;;;13.89;81.66
69214;BME280;56325;47.030;18.518;2022-09-17T06:08:34;99554.44;;;14.07;80.45
69214;BME280;56325;47.030;18.518;2022-09-17T06:11:08;99560.25;;;14.21;78.29
69214;BME280;56325;47.030;18.518;2022-09-17T06:13:44;99582.34;;;14.09;79.83
69214;BME280;56325;47.030;18.518;2022-09-17T06:16:19;99585.84;;;14.04;81.08
69214;BME280;56325;47.030;18.518;2022-09-17T06:18:54;99586.09;;;14.01;79.46
69214;BME280;56325;47.030;18.518;2022-09-17T06:21:28;99585.84;;;14.04;78.41
69214;BME280;56325;47.030;18.518;2022-09-17T06:24:03;99579.78;;;14.00;79.36
69214;BME280;56325;47.030;18.518;2022-09-17T06:26:37;99584.09;;;14.07;78.47
69214;BME280;56325;47.030;18.518;2022-09-17T06:29:13;99575.25;;;13.92;79.45
69214;BME280;56325;47.030;18.518;2022-09-17T06:31:47;99580.56;;;14.01;78.72
69214;BME280;56325;47.030;18.518;2022-09-17T06:34:22;99565.19;;;13.89;80.66
69214;BME280;56325;47.030;18.518;2022-09-17T06:36:56;99564.72;;;14.01;78.71
69214;BME280;56325;47.030;18.518;2022-09-17T06:39:30;99565.44;;;13.91;79.19
69214;BME280;56325;47.030;18.518;2022-09-17T06:42:05;99573.00;;;13.96;78.97
69214;BME280;56325;47.030;18.518;2022-09-17T06:44:41;99581.75;;;13.77;79.16
69214;BME280;56325;47.030;18.518;2022-09-17T06:47:15;99586.72;;;13.62;79.65
69214;BME280;56325;47.030;18.518;2022-09-17T06:49:51;99580.66;;;13.58;80.19
69214;BME280;56325;47.030;18.518;2022-09-17T06:52:26;99573.59;;;13.52;81.09
69214;BME280;56325;47.030;18.518;2022-09-17T06:55:01;99570.88;;;13.57;79.96
69214;BME280;56325;47.030;18.518;2022-09-17T06:57:35;99572.63;;;13.60;80.04
69214;BME280;56325;47.030;18.518;2022-09-17T07:00:14;99581.97;;;13.68;78.70
69214;BME280;56325;47.030;18.518;2022-09-17T07:02:55;99578.66;;;13.59;79.03
69214;BME280;56325;47.030;18.518;2022-09-17T07:05:30;99567.84;;;13.55;80.31
69214;BME280;56325;47.030;18.518;2022-09-17T07:08:05;99566.66;;;13.73;79.00
69214;BME280;56325;47.030;18.518;2022-09-17T07:10:39;99570.44;;;13.75;79.31
69214;BME280;56325;47.030;18.518;2022-09-17T07:13:14;99573.72;;;13.80;79.00
69214;BME280;56325;47.030;18.518;2022-09-17T07:15:53;99589.00;;;13.69;80.81
69214;BME280;56325;47.030;18.518;2022-09-17T07:18:28;99590.06;;;13.83;79.22
69214;BME280;56325;47.030;18.518;2022-09-17T07:21:04;99600.09;;;13.81;80.14
69214;BME280;56325;47.030;18.518;2022-09-17T07:23:39;99594.53;;;13.69;80.23
69214;BME280;56325;47.030;18.518;2022-09-17T07:26:14;99585.00;;;13.70;80.03
69214;BME280;56325;47.030;18.518;2022-09-17T07:28:49;99575.94;;;13.70;81.92
69214;BME280;56325;47.030;18.518;2022-09-17T07:31:25;99579.75;;;13.78;80.66
69214;BME280;56325;47.030;18.518;2022-09-17T07:33:59;99579.06;;;14.11;78.74
69214;BME280;56325;47.030;18.518;2022-09-17T07:36:33;99585.56;;;13.97;78.24
69214;BME280;56325;47.030;18.518;2022-09-17T07:39:07;99608.12;;;13.78;79.79
69214;BME280;56325;47.030;18.518;2022-09-17T07:41:43;99607.16;;;13.82;81.39
69214;BME280;56325;47.030;18.518;2022-09-17T07:44:17;99607.41;;;13.95;80.08
69214;BME280;56325;47.030;18.518;2022-09-17T07:46:53;99600.69;;;14.07;78.60
69214;BME280;56325;47.030;18.518;2022-09-17T07:49:27;99594.63;;;14.03;78.77
69214;BME280;56325;47.030;18.518;2022-09-17T07:52:02;99600.94;;;14.15;77.97
69214;BME280;56325;47.030;18.518;2022-09-17T07:54:37;99605.94;;;13.99;78.33
69214;BME280;56325;47.030;18.518;2022-09-17T07:57:12;99609.44;;;13.94;77.15
69214;BME280;56325;47.030;18.518;2022-09-17T07:59:46;99614.72;;;13.98;77.43
69214;BME280;56325;47.030;18.518;2022-09-17T08:02:22;99627.53;;;14.01;78.27
69214;BME280;56325;47.030;18.518;2022-09-17T08:04:57;99635.81;;;13.95;78.11
69214;BME280;56325;47.030;18.518;2022-09-17T08:07:31;99626.09;;;14.17;77.01
69214;BME280;56325;47.030;18.518;2022-09-17T08:10:07;99630.56;;;14.03;78.50
69214;BME280;56325;47.030;18.518;2022-09-17T08:12:41;99638.91;;;14.14;77.94
69214;BME280;56325;47.030;18.518;2022-09-17T08:15:15;99648.22;;;14.22;77.58
69214;BME280;56325;47.030;18.518;2022-09-17T08:17:51;99655.03;;;14.21;77.34
69214;BME280;56325;47.030;18.518;2022-09-17T08:20:26;99654.25;;;14.15;76.55
69214;BME280;56325;47.030;18.518;2022-09-17T08:23:01;99660.97;;;14.03;77.52
69214;BME280;56325;47.030;18.518;2022-09-17T08:25:35;99659.97;;;14.00;77.97
69214;BME280;56325;47.030;18.518;2022-09-17T08:28:09;99650.87;;;13.89;77.81
69214;BME280;56325;47.030;18.518;2022-09-17T08:30:44;99648.88;;;13.95;78.54
69214;BME280;56325;47.030;18.518;2022-09-17T08:33:21;99646.62;;;13.99;78.35
69214;BME280;56325;47.030;18.518;2022-09-17T08:35:56;99652.88;;;13.88;78.98
69214;BME280;56325;47.030;18.518;2022-09-17T08:38:33;99655.91;;;13.85;79.09
69214;BME280;56325;47.030;18.518;2022-09-17T08:41:20;99665.37;;;13.72;79.49
69214;BME280;56325;47.030;18.518;2022-09-17T08:44:03;99654.12;;;13.82;77.75
69214;BME280;56325;47.030;18.518;2022-09-17T08:46:45;99663.94;;;13.83;78.23
69214;BME280;56325;47.030;18.518;2022-09-17T08:49:31;99660.69;;;13.95;76.97
69214;BME280;56325;47.030;18.518;2022-09-17T08:52:40;99648.34;;;13.80;78.53
69214;BME280;56325;47.030;18.518;2022-09-17T08:55:33;99644.09;;;13.90;76.79
69214;BME280;56325;47.030;18.518;2022-09-17T08:58:41;99641.63;;;14.03;77.95
69214;BME280;56325;47.030;18.518;2022-09-17T09:01:26;99638.69;;;14.29;77.28
69214;BME280;56325;47.030;18.518;2022-09-17T09:04:30;99646.25;;;14.34;76.92
69214;BME280;56325;47.030;18.518;2022-09-17T09:23:30;99642.31;;;14.57;74.78
69214;BME280;56325;47.030;18.518;2022-09-17T10:23:57;99558.50;;;14.23;77.11
69214;BME280;56325;47.030;18.518;2022-09-17T12:28:31;99445.53;;;14.89;69.57
69214;BME280;56325;47.030;18.518;2022-09-17T12:31:13;99449.59;;;14.82;67.80
69214;BME280;56325;47.030;18.518;2022-09-17T12:33:53;99446.03;;;14.98;67.29
69214;BME280;56325;47.030;18.518;2022-09-17T12:36:34;99433.72;;;14.83;67.29
69214;BME280;56325;47.030;18.518;2022-09-17T12:39:37;99444.34;;;14.73;65.79
69214;BME280;56325;47.030;18.518;2022-09-17T12:42:28;99433.78;;;14.66;66.06
69214;BME280;56325;47.030;18.518;2022-09-17T12:45:20;99434.81;;;14.63;65.69
69214;BME280;56325;47.030;18.518;2022-09-17T12:48:17;99443.13;;;14.57;67.37
69214;BME280;56325;47.030;18.518;2022-09-17T12:51:06;99446.38;;;14.61;68.18
69214;BME280;56325;47.030;18.518;2022-09-17T12:53:50;99424.28;;;14.45;67.70
69214;BME280;56325;47.030;18.518;2022-09-17T12:56:38;99427.78;;;14.28;67.61
69214;BME280;56325;47.030;18.518;2022-09-17T12:59:21;99421.47;;;14.33;65.50
69214;BME280;56325;47.030;18.518;2022-09-17T13:02:07;99423.00;;;14.12;62.64
69214;BME280;56325;47.030;18.518;2022-09-17T13:05:09;99408.69;;;13.86;63.25
69214;BME280;56325;47.030;18.518;2022-09-17T13:08:06;99394.09;;;13.68;64.04
69214;BME280;56325;47.030;18.518;2022-09-17T13:13:58;99385.03;;;13.51;65.35
69214;BME280;56325;47.030;18.518;2022-09-17T13:16:39;99370.75;;;13.81;66.63
69214;BME280;56325;47.030;18.518;2022-09-17T13:19:26;99379.53;;;13.85;63.66
69214;BME280;56325;47.030;18.518;2022-09-17T13:22:05;99385.03;;;14.18;73.67
69214;BME280;56325;47.030;18.518;2022-09-17T13:24:42;99379.53;;;14.01;63.83
69214;BME280;56325;47.030;18.518;2022-09-17T13:27:22;99387.59;;;13.83;66.07
69214;BME280;56325;47.030;18.518;2022-09-17T13:29:59;99384.53;;;14.03;64.65
69214;BME280;56325;47.030;18.518;2022-09-17T13:32:48;99387.06;;;13.73;66.98
69214;BME280;56325;47.030;18.518;2022-09-17T13:35:46;99372.50;;;13.72;65.48
69214;BME280;56325;47.030;18.518;2022-09-17T13:38:22;99385.03;;;13.62;64.90
69214;BME280;56325;47.030;18.518;2022-09-17T13:41:17;99391.81;;;13.50;64.57
69214;BME280;56325;47.030;18.518;2022-09-17T13:43:53;99400.06;;;13.44;65.37
69214;BME280;56325;47.030;18.518;2022-09-17T13:46:29;99398.81;;;13.45;65.29
69214;BME280;56325;47.030;18.518;2022-09-17T13:49:13;99405.34;;;13.42;65.72
69214;BME280;56325;47.030;18.518;2022-09-17T13:51:50;99415.16;;;13.49;64.76
69214;BME280;56325;47.030;18.518;2022-09-17T13:54:37;99423.44;;;13.55;65.18
69214;BME280;56325;47.030;18.518;2022-09-17T13:57:13;99419.66;;;13.41;65.04
69214;BME280;56325;47.030;18.518;2022-09-17T13:59:53;99423.69;;;13.45;66.05
69214;BME280;56325;47.030;18.518;2022-09-17T14:02:33;99409.13;;;13.51;66.10
69214;BME280;56325;47.030;18.518;2022-09-17T14:08:25;99422.91;;;13.45;66.87
69214;BME280;56325;47.030;18.518;2022-09-17T14:11:18;99410.62;;;13.52;67.32
69214;BME280;56325;47.030;18.518;2022-09-17T14:14:39;99413.16;;;13.55;66.24
69214;BME280;56325;47.030;18.518;2022-09-17T14:17:48;99418.16;;;13.45;67.32
69214;BME280;56325;47.030;18.518;2022-09-17T14:20:24;99415.63;;;13.42;66.33
69214;BME280;56325;47.030;18.518;2022-09-17T14:23:00;99408.88;;;13.49;65.70
69214;BME280;56325;47.030;18.518;2022-09-17T14:25:40;99417.66;;;13.47;65.86
69214;BME280;56325;47.030;18.518;2022-09-17T14:28:27;99426.97;;;13.55;65.46
69214;BME280;56325;47.030;18.518;2022-09-17T14:31:08;99428.44;;;13.39;65.67
69214;BME280;56325;47.030;18.518;2022-09-17T14:33:46;99412.59;;;13.34;66.86
69214;BME280;56325;47.030;18.518;2022-09-17T14:36:22;99413.87;;;13.39;67.25
69214;BME280;56325;47.030;18.518;2022-09-17T14:38:56;99429.16;;;13.29;67.30
69214;BME280;56325;47.030;18.518;2022-09-17T14:41:34;99452.44;;;13.17;66.67
69214;BME280;56325;47.030;18.518;2022-09-17T14:44:16;99463.75;;;13.24;65.69
69214;BME280;56325;47.030;18.518;2022-09-17T14:46:55;99465.50;;;13.22;66.41
69214;BME280;56325;47.030;18.518;2022-09-17T14:49:32;99474.78;;;13.19;66.11
69214;BME280;56325;47.030;18.518;2022-09-17T14:52:22;99470.00;;;13.19;66.06
69214;BME280;56325;47.030;18.518;2022-09-17T14:55:17;99468.44;;;13.12;67.60
69214;BME280;56325;47.030;18.518;2022-09-17T14:57:54;99467.94;;;13.14;67.45
69214;BME280;56325;47.030;18.518;2022-09-17T15:00:32;99455.88;;;13.06;67.43
69214;BME280;56325;47.030;18.518;2022-09-17T15:03:20;99448.03;;;12.88;69.59
69214;BME280;56325;47.030;18.518;2022-09-17T15:05:55;99440.31;;;13.08;68.81
69214;BME280;56325;47.030;18.518;2022-09-17T15:08:29;99417.25;;;13.11;68.61
69214;BME280;56325;47.030;18.518;2022-09-17T15:11:09;99411.97;;;13.08;68.43
69214;BME280;56325;47.030;18.518;2022-09-17T15:13:49;99417.75;;;13.10;68.27
69214;BME280;56325;47.030;18.518;2022-09-17T15:16:25;99435.59;;;13.14;67.93
69214;BME280;56325;47.030;18.518;2022-09-17T15:19:00;99440.59;;;13.10;68.73
69214;BME280;56325;47.030;18.518;2022-09-17T15:21:39;99425.75;;;12.97;68.86
69214;BME280;56325;47.030;18.518;2022-09-17T15:24:19;99422.75;;;13.06;68.83
69214;BME280;56325;47.030;18.518;2022-09-17T15:26:58;99416.97;;;13.04;68.89
69214;BME280;56325;47.030;18.518;2022-09-17T15:29:39;99414.44;;;13.00;70.44
69214;BME280;56325;47.030;18.518;2022-09-17T15:32:16;99407.69;;;12.96;70.44
69214;BME280;56325;47.030;18.518;2022-09-17T15:35:24;99410.53;;;13.18;69.07
69214;BME280;56325;47.030;18.518;2022-09-17T15:38:02;99410.56;;;13.24;69.07
69214;BME280;56325;47.030;18.518;2022-09-17T15:41:19;99403.22;;;13.15;69.44
69214;BME280;56325;47.030;18.518;2022-09-17T15:44:12;99402.69;;;13.11;69.13
69214;BME280;56325;47.030;18.518;2022-09-17T15:47:34;99404.97;;;13.12;70.54
69214;BME280;56325;47.030;18.518;2022-09-17T15:50:14;99406.91;;;13.01;70.24
69214;BME280;56325;47.030;18.518;2022-09-17T15:52:49;99408.91;;;12.89;71.10
69214;BME280;56325;47.030;18.518;2022-09-17T15:55:32;99391.25;;;12.70;71.65
69214;BME280;56325;47.030;18.518;2022-09-17T15:58:29;99406.09;;;12.78;72.52
69214;BME280;56325;47.030;18.518;2022-09-17T16:04:29;99403.91;;;12.93;71.91
69214;BME280;56325;47.030;18.518;2022-09-17T16:07:32;99395.66;;;13.10;72.85
69214;BME280;56325;47.030;18.518;2022-09-17T16:10:08;99396.00;;;13.23;71.16
69214;BME280;56325;47.030;18.518;2022-09-17T16:12:43;99386.59;;;12.93;72.75
69214;BME280;56325;47.030;18.518;2022-09-17T16:15:17;99380.03;;;12.85;72.86
69214;BME280;56325;47.030;18.518;2022-09-17T16:17:52;99381.06;;;12.93;72.64
69214;BME280;56325;47.030;18.518;2022-09-17T16:20:30;99383.28;;;12.83;73.19
69214;BME280;56325;47.030;18.518;2022-09-17T16:23:04;99380.31;;;12.92;73.77
69214;BME280;56325;47.030;18.518;2022-09-17T16:25:38;99382.31;;;12.92;73.81
69214;BME280;56325;47.030;18.518;2022-09-17T16:28:15;99393.16;;;13.12;72.69
69214;BME280;56325;47.030;18.518;2022-09-17T16:30:52;99385.09;;;12.92;75.25
69214;BME280;56325;47.030;18.518;2022-09-17T16:33:26;99400.84;;;12.86;75.04
69214;BME280;56325;47.030;18.518;2022-09-17T16:36:02;99394.16;;;13.09;73.44
69214;BME280;56325;47.030;18.518;2022-09-17T16:38:36;99396.91;;;13.03;72.57
69214;BME280;56325;47.030;18.518;2022-09-17T16:41:12;99389.84;;;12.91;73.41
69214;BME280;56325;47.030;18.518;2022-09-17T16:43:46;99380.03;;;12.85;72.85
69214;BME280;56325;47.030;18.518;2022-09-17T16:46:21;99394.94;;;12.56;72.58
69214;BME280;56325;47.030;18.518;2022-09-17T16:48:55;99415.28;;;12.64;72.42
69214;BME280;56325;47.030;18.518;2022-09-17T16:51:31;99406.81;;;12.73;71.87
69214;BME280;56325;47.030;18.518;2022-09-17T16:54:05;99388.34;;;12.47;71.21
69214;BME280;56325;47.030;18.518;2022-09-17T16:56:40;99370.78;;;12.45;72.00
69214;BME280;56325;47.030;18.518;2022-09-17T16:59:14;99367.81;;;12.48;72.55
69214;BME280;56325;47.030;18.518;2022-09-17T17:01:50;99374.56;;;12.47;73.22
69214;BME280;56325;47.030;18.518;2022-09-17T17:04:24;99373.19;;;12.69;73.32
69214;BME280;56325;47.030;18.518;2022-09-17T17:07:00;99380.81;;;12.91;71.52
69214;BME280;56325;47.030;18.518;2022-09-17T17:09:35;99377.25;;;12.79;73.03
69214;BME280;56325;47.030;18.518;2022-09-17T17:12:10;99386.31;;;12.85;70.55
69214;BME280;56325;47.030;18.518;2022-09-17T17:14:44;99405.22;;;12.61;72.05
69214;BME280;56325;47.030;18.518;2022-09-17T17:17:22;99389.75;;;12.69;72.29